Time;durP1;ratioP1;P1;durP2;ratioP2;P2;SDS_P1;SDS_P2;PMS_P1;PMS_P2;Temp;Humidity;BMP_temperature;BMP_pressure;BME280_temperature;BME280_humidity;BME280_pressure;Samples;Min_cycle;Max_cycle;Signal;HPM_P1;HPM_P2
2022/03/22 00:02:11;;;;;;;71.45;37.28;;;;;;;1.75;38.08;102246.28;4990704;28;106663;-74
2022/03/22 00:04:36;;;;;;;66.50;36.30;;;;;;;1.73;38.19;102253.34;4989963;28;118647;-72
2022/03/22 00:07:02;;;;;;;64.88;34.75;;;;;;;1.70;38.36;102250.88;4990340;28;106185;-72
2022/03/22 00:09:27;;;;;;;70.03;36.00;;;;;;;1.66;38.50;102247.50;4990996;28;105948;-74
2022/03/22 00:11:53;;;;;;;75.85;35.55;;;;;;;1.66;38.59;102257.16;4990077;28;106124;-72
2022/03/22 00:14:18;;;;;;;59.42;33.22;;;;;;;1.63;38.56;102250.25;4990032;28;105730;-72
2022/03/22 00:16:44;;;;;;;66.63;35.88;;;;;;;1.61;38.72;102251.22;4990270;28;105897;-73
2022/03/22 00:19:09;;;;;;;77.15;37.60;;;;;;;1.59;38.62;102245.19;4990641;28;106939;-75
2022/03/22 00:21:37;;;;;;;74.25;37.13;;;;;;;1.58;38.75;102257.47;4990601;28;106007;-73
2022/03/22 00:24:03;;;;;;;64.95;36.78;;;;;;;1.56;38.80;102251.44;4989738;28;106244;-72
2022/03/22 00:26:29;;;;;;;72.53;36.47;;;;;;;1.54;39.13;102258.50;4990218;28;106201;-74
2022/03/22 00:28:54;;;;;;;74.25;36.97;;;;;;;1.51;38.93;102248.97;4990904;28;106208;-72
2022/03/22 00:31:20;;;;;;;76.60;39.15;;;;;;;1.49;38.88;102244.69;4990334;28;106033;-72
2022/03/22 00:33:45;;;;;;;74.78;39.50;;;;;;;1.45;39.42;102251.84;4990105;28;105917;-73
2022/03/22 00:36:10;;;;;;;75.35;37.17;;;;;;;1.43;39.21;102248.41;4990056;28;106013;-72
2022/03/22 00:38:36;;;;;;;65.45;35.33;;;;;;;1.40;39.14;102247.69;4990099;28;106039;-72
2022/03/22 00:41:01;;;;;;;69.63;35.28;;;;;;;1.37;39.27;102246.03;4990041;28;106079;-73
2022/03/22 00:43:26;;;;;;;70.28;36.35;;;;;;;1.32;39.58;102246.19;4989849;28;105874;-74
2022/03/22 00:45:52;;;;;;;64.68;33.85;;;;;;;1.29;39.73;102235.81;4989776;28;105810;-73
2022/03/22 00:48:17;;;;;;;64.85;34.00;;;;;;;1.26;39.82;102241.19;4990630;28;105861;-73
2022/03/22 00:50:46;;;;;;;68.03;35.95;;;;;;;1.23;39.94;102245.69;4989650;28;105889;-73
2022/03/22 00:53:18;;;;;;;67.25;33.88;;;;;;;1.18;40.16;102248.53;4989583;28;105997;-73
2022/03/22 00:55:44;;;;;;;73.55;35.90;;;;;;;1.13;40.28;102240.78;4989762;28;106356;-74
2022/03/22 00:58:10;;;;;;;64.60;35.20;;;;;;;1.08;40.12;102241.91;4990433;28;105865;-73
2022/03/22 01:00:37;;;;;;;65.20;33.15;;;;;;;1.03;40.42;102241.25;4989888;28;106251;-74
2022/03/22 01:03:04;;;;;;;65.15;35.25;;;;;;;0.96;40.94;102238.81;4989299;28;106208;-76
2022/03/22 01:05:30;;;;;;;67.00;33.67;;;;;;;0.90;40.78;102231.16;4989382;28;105909;-73
2022/03/22 01:07:55;;;;;;;65.05;32.55;;;;;;;0.86;41.00;102226.09;4989856;28;106083;-73
2022/03/22 01:10:22;;;;;;;70.00;34.58;;;;;;;0.81;41.23;102228.91;4988876;28;105918;-72
2022/03/22 01:12:48;;;;;;;65.10;34.30;;;;;;;0.77;41.07;102240.44;4989075;28;106235;-73
2022/03/22 01:15:20;;;;;;;62.55;34.95;;;;;;;0.74;41.77;102235.28;4989293;28;105936;-75
2022/03/22 01:17:47;;;;;;;59.22;31.67;;;;;;;0.69;41.88;102235.47;4989795;28;105913;-73
2022/03/22 01:20:13;;;;;;;69.90;31.70;;;;;;;0.66;41.69;102241.66;4989393;28;106242;-73
2022/03/22 01:22:42;;;;;;;73.22;34.75;;;;;;;0.63;41.98;102235.66;4987955;28;106048;-73
2022/03/22 01:25:10;;;;;;;75.70;38.50;;;;;;;0.58;42.14;102235.00;4989006;28;106118;-74
2022/03/22 01:27:36;;;;;;;76.70;36.38;;;;;;;0.53;42.29;102234.28;4989484;28;105982;-73
2022/03/22 01:30:05;;;;;;;71.38;36.90;;;;;;;0.48;42.51;102223.97;4989479;28;105945;-72
2022/03/22 01:32:30;;;;;;;76.88;37.30;;;;;;;0.44;42.35;102227.63;4988831;28;106632;-73
2022/03/22 01:34:56;;;;;;;80.25;37.08;;;;;;;0.40;42.88;102234.72;4988977;28;105839;-72
2022/03/22 01:37:21;;;;;;;69.40;37.10;;;;;;;0.36;43.08;102230.50;4988617;28;105957;-73
2022/03/22 01:39:46;;;;;;;82.97;38.10;;;;;;;0.32;42.89;102235.00;4989166;28;106042;-73
2022/03/22 01:42:12;;;;;;;66.80;33.47;;;;;;;0.29;43.06;102232.47;4988764;28;112549;-73
2022/03/22 01:44:37;;;;;;;61.35;32.28;;;;;;;0.25;43.47;102223.00;4988664;28;105853;-73
2022/03/22 01:47:03;;;;;;;66.60;33.53;;;;;;;0.24;42.78;102218.66;4989079;28;105979;-73
2022/03/22 01:49:29;;;;;;;59.40;30.50;;;;;;;0.21;43.60;102213.53;4988787;28;106169;-73
2022/03/22 01:51:55;;;;;;;66.35;34.58;;;;;;;0.20;43.61;102216.22;4988532;28;106054;-73
2022/03/22 01:54:21;;;;;;;71.88;35.72;;;;;;;0.14;43.60;102223.38;4988538;28;106192;-72
2022/03/22 01:56:46;;;;;;;62.58;33.00;;;;;;;0.12;43.94;102216.47;4989384;28;105830;-73
2022/03/22 01:59:12;;;;;;;61.22;30.45;;;;;;;0.08;43.79;102212.25;4988761;28;106201;-74
2022/03/22 02:07:06;;;;;;;60.65;30.85;;;;;;;0.01;44.27;102205.50;4989449;28;105917;-72
2022/03/22 02:09:32;;;;;;;60.75;30.65;;;;;;;-0.01;43.77;102210.81;4988869;28;106258;-72
2022/03/22 02:11:58;;;;;;;53.63;29.65;;;;;;;-0.05;44.27;102202.19;4988477;28;105991;-72
2022/03/22 02:14:23;;;;;;;56.20;27.30;;;;;;;-0.07;44.01;102197.91;4969249;28;106809;-73
2022/03/22 02:16:49;;;;;;;48.90;24.00;;;;;;;-0.10;44.28;102193.63;4967431;28;105818;-75
2022/03/22 02:19:15;;;;;;;49.20;25.30;;;;;;;-0.11;44.38;102202.41;4968856;28;106096;-73
2022/03/22 02:21:41;;;;;;;58.95;28.48;;;;;;;-0.11;44.46;102202.41;4968080;28;105879;-73
2022/03/22 02:24:07;;;;;;;54.33;27.60;;;;;;;-0.13;44.59;102203.38;4968581;28;105983;-72
2022/03/22 02:26:32;;;;;;;61.00;30.63;;;;;;;-0.18;44.44;102196.53;4969067;28;106138;-74
2022/03/22 02:28:58;;;;;;;54.72;27.60;;;;;;;-0.20;43.88;102184.38;4968664;28;106201;-74
2022/03/22 02:31:27;;;;;;;45.17;25.40;;;;;;;-0.24;44.28;102188.00;4968056;28;106870;-73
2022/03/22 02:33:52;;;;;;;50.22;25.58;;;;;;;-0.25;44.37;102187.13;4968000;28;106208;-73
2022/03/22 02:36:18;;;;;;;48.38;25.67;;;;;;;-0.26;44.70;102192.41;4968821;28;106353;-73
2022/03/22 02:38:44;;;;;;;43.35;24.50;;;;;;;-0.26;44.65;102195.03;4968236;28;106101;-73
2022/03/22 02:41:21;;;;;;;44.60;24.52;;;;;;;-0.27;44.86;102199.44;4968262;28;106651;-74
2022/03/22 02:43:48;;;;;;;45.63;24.55;;;;;;;-0.26;44.69;102205.53;4968389;28;105886;-72
2022/03/22 02:46:14;;;;;;;47.70;25.50;;;;;;;-0.26;44.52;102203.78;4968790;28;106023;-73
2022/03/22 02:48:40;;;;;;;42.75;23.45;;;;;;;-0.26;44.65;102197.66;4968403;28;106212;-72
2022/03/22 02:51:06;;;;;;;49.67;25.73;;;;;;;-0.27;44.39;102202.06;4967965;28;106682;-72
2022/03/22 02:53:31;;;;;;;45.33;22.63;;;;;;;-0.29;44.33;102195.16;4968014;28;106329;-72
2022/03/22 02:55:56;;;;;;;47.80;24.05;;;;;;;-0.30;44.64;102210.03;4968886;28;105926;-72
2022/03/22 02:58:22;;;;;;;49.10;24.42;;;;;;;-0.32;44.95;102208.34;4968475;28;106258;-73
2022/03/22 03:00:47;;;;;;;49.88;25.77;;;;;;;-0.33;45.28;102217.97;4967669;28;115716;-72
2022/03/22 03:03:12;;;;;;;48.08;24.23;;;;;;;-0.36;44.78;102218.91;4967830;28;105915;-73
2022/03/22 03:05:38;;;;;;;39.67;23.88;;;;;;;-0.39;44.90;102216.41;4968774;28;105847;-72
2022/03/22 03:08:04;;;;;;;45.58;22.73;;;;;;;-0.41;44.61;102215.59;4968102;28;106165;-73
2022/03/22 03:10:29;;;;;;;49.45;24.60;;;;;;;-0.44;45.06;102220.91;4967781;28;105919;-73
2022/03/22 03:13:03;;;;;;;44.92;23.23;;;;;;;-0.46;45.51;102214.88;4967975;28;105923;-72
2022/03/22 03:15:29;;;;;;;40.30;22.50;;;;;;;-0.47;44.98;102215.78;4968806;28;106081;-73
2022/03/22 03:17:54;;;;;;;43.33;23.63;;;;;;;-0.49;45.64;102217.63;4968087;28;106172;-73
2022/03/22 03:20:19;;;;;;;45.90;23.05;;;;;;;-0.52;45.48;102218.56;4967491;28;106987;-73
2022/03/22 03:22:45;;;;;;;43.95;22.95;;;;;;;-0.54;45.75;102219.50;4967872;28;106023;-72
2022/03/22 03:25:10;;;;;;;40.63;22.10;;;;;;;-0.57;45.50;102219.63;4968523;28;106006;-73
2022/03/22 03:27:36;;;;;;;45.55;22.63;;;;;;;-0.59;45.34;102216.19;4968158;28;106086;-72
2022/03/22 03:30:05;;;;;;;39.40;21.27;;;;;;;-0.60;45.73;102217.06;4967525;28;106310;-72
2022/03/22 03:32:31;;;;;;;39.08;22.35;;;;;;;-0.62;45.19;102219.75;4967689;28;105927;-73
2022/03/22 03:34:57;;;;;;;41.28;21.88;;;;;;;-0.63;45.42;102219.78;4968171;28;106161;-73
2022/03/22 03:37:28;;;;;;;45.83;22.55;;;;;;;-0.65;45.44;102216.38;4967243;28;106171;-73
2022/03/22 03:39:53;;;;;;;43.63;23.98;;;;;;;-0.68;46.04;102222.56;4967322;28;106021;-73
2022/03/22 03:42:19;;;;;;;44.20;23.05;;;;;;;-0.71;45.50;102227.88;4967447;28;106222;-73
2022/03/22 03:47:28;;;;;;;40.53;21.25;;;;;;;-0.76;46.18;102225.41;4971444;28;106324;-72
2022/03/22 03:49:59;;;;;;;41.08;22.95;;;;;;;-0.77;45.86;102228.94;4969546;28;105948;-72
2022/03/22 03:52:24;;;;;;;;;;;;;;;-0.79;46.08;102224.63;4969459;28;105936;-73
2022/03/22 03:54:50;;;;;;;39.55;20.42;;;;;;;-0.80;45.91;102225.56;4971614;28;105856;-73
2022/03/22 03:57:16;;;;;;;36.08;20.38;;;;;;;-0.83;46.07;102226.50;4970860;28;106264;-72
2022/03/22 03:59:43;;;;;;;37.60;21.67;;;;;;;-0.85;46.52;102220.44;4970226;28;106225;-73
2022/03/22 04:02:10;;;;;;;38.78;21.63;;;;;;;-0.86;46.45;102229.22;4970152;28;106235;-72
2022/03/22 04:04:37;;;;;;;42.05;22.00;;;;;;;-0.88;46.21;102217.94;4971075;28;106327;-72
2022/03/22 04:07:04;;;;;;;44.28;22.70;;;;;;;-0.90;46.56;102227.59;4970168;28;105795;-73
2022/03/22 04:09:29;;;;;;;42.80;21.52;;;;;;;-0.91;46.13;102221.50;4970067;28;106027;-73
2022/03/22 04:11:55;;;;;;;41.60;22.70;;;;;;;-0.93;46.64;102222.44;4969967;28;106066;-73
2022/03/22 04:14:20;;;;;;;44.40;22.60;;;;;;;-0.95;46.17;102222.50;4970867;28;105887;-73
2022/03/22 04:16:46;;;;;;;40.55;21.50;;;;;;;-0.98;46.63;102230.44;4969758;28;109800;-74
2022/03/22 04:19:12;;;;;;;42.33;22.73;;;;;;;-1.00;46.97;102236.63;4969938;28;107754;-73
2022/03/22 04:21:39;;;;;;;49.28;23.05;;;;;;;-1.03;47.16;102227.94;4970080;28;105958;-72
2022/03/22 04:24:06;;;;;;;50.70;23.85;;;;;;;-1.05;47.17;102235.00;4970803;28;105943;-73
2022/03/22 04:26:36;;;;;;;51.58;23.33;;;;;;;-1.06;46.64;102229.81;4969993;28;106252;-73
2022/03/22 04:34:33;;;;;;;44.75;21.70;;;;;;;-1.12;47.27;102235.22;4970707;28;106037;-73
2022/03/22 04:37:01;;;;;;;49.05;24.25;;;;;;;-1.14;47.17;102234.41;4969820;28;106136;-72
2022/03/22 04:39:28;;;;;;;47.20;23.60;;;;;;;-1.15;46.98;102238.75;4968929;28;106051;-73
2022/03/22 04:41:54;;;;;;;50.55;23.65;;;;;;;-1.17;47.38;102235.34;4969403;28;105737;-72
2022/03/22 04:44:19;;;;;;;44.00;22.85;;;;;;;-1.18;47.33;102232.78;4970015;28;105835;-72
2022/03/22 04:46:45;;;;;;;52.83;25.17;;;;;;;-1.20;47.73;102246.75;4969615;28;105805;-72
2022/03/22 04:49:11;;;;;;;53.63;25.77;;;;;;;-1.22;47.68;102250.31;4969126;28;106580;-73
2022/03/22 04:57:04;;;;;;;49.85;26.02;;;;;;;-1.25;47.82;102253.88;4969743;28;106155;-72
2022/03/22 04:59:30;;;;;;;57.33;26.00;;;;;;;-1.23;47.95;102259.03;4969220;28;105864;-73
2022/03/22 05:01:55;;;;;;;54.80;26.35;;;;;;;-1.23;48.18;102251.19;4969249;28;105770;-72
2022/03/22 05:04:21;;;;;;;47.92;25.05;;;;;;;-1.20;48.06;102256.38;4969702;28;105795;-73
2022/03/22 05:06:46;;;;;;;47.65;24.98;;;;;;;-1.18;47.71;102251.09;4969435;28;106317;-72
2022/03/22 05:09:12;;;;;;;49.22;23.08;;;;;;;-1.14;47.75;102256.19;4966991;28;107630;-72
2022/03/22 05:11:37;;;;;;;54.40;26.15;;;;;;;-1.12;48.36;102257.00;4967355;28;105877;-72
2022/03/22 05:14:03;;;;;;;46.83;24.23;;;;;;;-1.06;47.72;102254.19;4969632;28;105832;-73
2022/03/22 05:16:32;;;;;;;53.58;25.20;;;;;;;-1.00;48.40;102253.16;4968931;28;106149;-72
2022/03/22 05:18:58;;;;;;;49.83;23.83;;;;;;;-0.93;48.42;102249.47;4968639;28;107180;-72
2022/03/22 05:21:25;;;;;;;44.67;24.60;;;;;;;-0.85;48.33;102257.09;4968619;28;105952;-72
2022/03/22 05:23:51;;;;;;;60.72;28.00;;;;;;;-0.75;48.45;102250.69;4969661;28;105813;-72
2022/03/22 05:26:17;;;;;;;44.78;24.10;;;;;;;-0.65;48.67;102253.03;4969151;28;106166;-73
2022/03/22 05:28:43;;;;;;;49.15;25.27;;;;;;;-0.54;48.64;102253.56;4968965;28;106737;-73
2022/03/22 05:31:10;;;;;;;48.13;25.38;;;;;;;-0.42;48.63;102247.94;4968861;28;105884;-73
2022/03/22 05:33:38;;;;;;;51.20;26.20;;;;;;;-0.29;48.31;102247.53;4969627;28;105955;-73
2022/03/22 05:36:05;;;;;;;57.40;27.00;;;;;;;-0.16;48.53;102254.09;4968795;28;106193;-73
2022/03/22 05:38:33;;;;;;;42.47;24.83;;;;;;;0.01;48.08;102252.69;4966941;28;106079;-72
2022/03/22 05:41:02;;;;;;;57.10;27.98;;;;;;;0.16;48.14;102252.16;4968205;28;110134;-73
2022/03/22 05:43:28;;;;;;;60.00;27.55;;;;;;;0.31;47.87;102248.16;4967534;28;105894;-73
2022/03/22 05:45:53;;;;;;;53.45;25.60;;;;;;;0.47;47.94;102256.34;4968486;28;106232;-73
2022/03/22 05:48:19;;;;;;;43.67;25.38;;;;;;;0.61;47.43;102264.56;4968143;28;106123;-72
2022/03/22 05:50:45;;;;;;;58.80;26.45;;;;;;;0.73;47.47;102246.69;4968131;28;106133;-72
2022/03/22 05:53:11;;;;;;;45.08;25.45;;;;;;;0.88;47.48;102253.16;4968771;28;105848;-72
2022/03/22 05:55:37;;;;;;;51.72;26.70;;;;;;;1.07;47.47;102258.59;4968513;28;106120;-73
2022/03/22 05:58:03;;;;;;;52.70;25.52;;;;;;;1.26;47.38;102251.72;4967762;28;106023;-75
2022/03/22 06:00:28;;;;;;;44.65;25.67;;;;;;;1.40;46.90;102252.94;4966808;28;105983;-73
2022/03/22 06:02:54;;;;;;;46.50;25.55;;;;;;;1.45;46.65;102250.97;4968736;28;105951;-74
2022/03/22 06:05:19;;;;;;;52.90;26.88;;;;;;;1.52;46.24;102258.56;4968472;28;106218;-73
2022/03/22 06:07:44;;;;;;;41.80;25.45;;;;;;;1.62;46.19;102258.19;4967664;28;105947;-74
2022/03/22 06:10:14;;;;;;;49.45;26.17;;;;;;;1.80;46.10;102256.59;4967775;28;106057;-73
2022/03/22 06:12:53;;;;;;;54.28;28.13;;;;;;;2.05;46.17;102259.09;4968752;28;105840;-75
2022/03/22 06:15:20;;;;;;;51.47;27.20;;;;;;;2.25;45.87;102257.38;4968010;28;106001;-73
2022/03/22 06:17:50;;;;;;;66.25;30.52;;;;;;;2.44;45.34;102263.56;4967892;28;107768;-73
2022/03/22 06:20:20;;;;;;;55.13;27.88;;;;;;;2.65;45.36;102267.03;4967976;28;106209;-75
2022/03/22 06:22:46;;;;;;;;;;;;;;;2.88;45.29;102265.13;4969708;28;105846;-74
2022/03/22 06:25:13;;;;;;;55.08;27.08;;;;;;;3.10;44.68;102266.81;4966941;28;106259;-75
2022/03/22 06:27:39;;;;;;;60.55;28.35;;;;;;;3.31;44.43;102255.28;4968105;28;105748;-72
2022/03/22 06:30:06;;;;;;;55.28;28.52;;;;;;;3.52;43.91;102260.44;4967692;28;106391;-74
2022/03/22 06:32:40;;;;;;;57.72;28.33;;;;;;;3.72;43.30;102260.34;4968144;28;106898;-73
2022/03/22 06:35:05;;;;;;;59.65;30.38;;;;;;;3.79;43.25;102260.88;4967505;28;105935;-75
2022/03/22 06:37:31;;;;;;;58.35;29.40;;;;;;;3.86;43.20;102266.72;4967217;28;105887;-73
2022/03/22 06:39:56;;;;;;;59.05;30.17;;;;;;;3.96;43.10;102262.69;4967622;28;105873;-73
2022/03/22 06:42:22;;;;;;;55.65;30.42;;;;;;;4.10;42.63;102264.66;4968274;28;105860;-73
2022/03/22 06:44:47;;;;;;;62.20;32.55;;;;;;;4.28;42.31;102272.53;4967757;28;106212;-73
2022/03/22 06:47:12;;;;;;;66.60;34.00;;;;;;;4.45;42.56;102269.91;4967596;28;106339;-74
2022/03/22 06:49:38;;;;;;;63.38;34.20;;;;;;;4.64;41.95;102274.25;4967536;28;106028;-73
2022/03/22 06:52:03;;;;;;;59.60;32.05;;;;;;;4.83;41.96;102268.84;4967988;28;106097;-73
2022/03/22 06:54:29;;;;;;;63.53;32.75;;;;;;;5.03;42.05;102262.47;4967378;28;105935;-73
2022/03/22 06:56:55;;;;;;;57.10;32.22;;;;;;;5.22;41.49;102265.84;4966968;28;125019;-73
2022/03/22 06:59:20;;;;;;;64.18;34.22;;;;;;;5.49;41.55;102262.56;4966939;28;106399;-73
2022/03/22 07:01:45;;;;;;;60.72;33.28;;;;;;;5.64;41.02;102265.31;4968034;28;105915;-74
2022/03/22 07:04:10;;;;;;;62.80;32.15;;;;;;;5.85;41.33;102260.56;4967315;28;111231;-73
2022/03/22 07:06:36;;;;;;;65.78;32.70;;;;;;;6.13;41.06;102265.16;4967130;28;116462;-74
2022/03/22 07:09:01;;;;;;;67.90;34.15;;;;;;;6.42;40.39;102265.19;4966780;28;121790;-74
2022/03/22 07:14:10;;;;;;;62.58;32.10;;;;;;;6.89;39.83;102269.41;4967709;28;105922;-75
2022/03/22 07:16:36;;;;;;;55.78;32.15;;;;;;;7.11;39.52;102271.56;4966381;28;112629;-76
2022/03/22 07:19:01;;;;;;;57.92;29.80;;;;;;;7.47;39.20;102256.06;4966857;28;106405;-73
2022/03/22 07:21:29;;;;;;;56.50;30.90;;;;;;;7.61;38.29;102255.16;4969570;28;106077;-73
2022/03/22 07:23:55;;;;;;;58.00;30.58;;;;;;;7.72;38.10;102265.94;4970710;28;106034;-73
2022/03/22 07:26:20;;;;;;;58.42;31.08;;;;;;;7.88;37.58;102262.25;4970306;28;105915;-72
2022/03/22 07:28:45;;;;;;;57.80;31.55;;;;;;;8.10;37.14;102265.16;4970276;28;106795;-73
2022/03/22 07:31:11;;;;;;;57.00;32.25;;;;;;;8.33;36.21;102264.59;4970899;28;106073;-72
2022/03/22 07:33:37;;;;;;;54.63;32.22;;;;;;;8.49;36.66;102261.75;4970695;28;106141;-73
2022/03/22 07:36:03;;;;;;;57.80;31.67;;;;;;;8.74;36.35;102275.03;4970598;28;105935;-74
2022/03/22 07:38:29;;;;;;;52.63;31.73;;;;;;;8.95;35.45;102258.53;4970002;28;105866;-73
2022/03/22 07:40:54;;;;;;;52.53;30.65;;;;;;;8.98;35.02;102263.66;4970746;28;106022;-72
2022/03/22 07:43:19;;;;;;;58.25;31.90;;;;;;;9.08;34.75;102266.50;4969787;28;112305;-74
2022/03/22 07:45:45;;;;;;;52.42;29.80;;;;;;;9.34;35.09;102275.25;4970225;28;106030;-72
2022/03/22 07:48:10;;;;;;;55.60;29.38;;;;;;;9.60;34.20;102259.22;4969817;28;106510;-72
2022/03/22 07:53:19;;;;;;;54.88;29.38;;;;;;;10.13;33.60;102270.31;4970557;28;106034;-72
2022/03/22 14:27:18;;;;;;;20.30;14.52;;;;;;;19.80;13.88;101964.41;5007528;28;106087;-69
2022/03/22 14:29:44;;;;;;;21.33;14.73;;;;;;;19.79;14.19;101962.69;5004811;28;105860;-74
2022/03/22 14:32:10;;;;;;;24.40;14.73;;;;;;;19.71;14.65;101954.69;5003904;28;106159;-75
2022/03/22 14:37:20;;;;;;;21.83;13.85;;;;;;;19.31;15.06;101951.44;5003469;28;106099;-73
2022/03/22 14:39:47;;;;;;;20.40;13.52;;;;;;;19.30;15.06;101945.22;5001505;28;106409;-72
2022/03/22 14:42:13;;;;;;;19.75;13.73;;;;;;;19.14;15.24;101942.69;5002483;28;106320;-72
2022/03/22 14:44:41;;;;;;;17.80;13.60;;;;;;;18.98;15.44;101946.38;5002520;28;105925;-71
2022/03/22 14:47:06;;;;;;;22.05;15.05;;;;;;;18.96;15.38;101951.09;5001260;28;106055;-72
2022/03/22 14:49:32;;;;;;;22.20;14.95;;;;;;;19.00;15.42;101937.06;5001859;28;106560;-71
2022/03/22 14:54:42;;;;;;;21.38;14.18;;;;;;;19.06;15.76;101935.50;4986085;28;105980;-73
2022/03/22 14:59:51;;;;;;;17.77;12.73;;;;;;;18.86;15.75;101927.88;4995748;28;106082;-73
2022/03/22 15:02:17;;;;;;;19.63;12.75;;;;;;;18.84;15.87;101931.78;5003013;28;106140;-72
2022/03/22 15:04:44;;;;;;;21.48;13.68;;;;;;;18.74;16.05;101924.78;5002538;28;106654;-71
2022/03/22 15:07:10;;;;;;;19.05;12.88;;;;;;;18.55;16.24;101923.41;5002247;28;106508;-72
2022/03/22 15:09:38;;;;;;;17.45;12.25;;;;;;;18.44;16.42;101913.06;5003313;28;106500;-74
2022/03/22 15:12:05;;;;;;;17.60;12.15;;;;;;;18.38;16.43;101928.06;5003131;28;106304;-71
2022/03/22 15:14:30;;;;;;;18.75;11.85;;;;;;;18.22;16.27;101918.25;5002611;28;106040;-70
2022/03/22 15:16:56;;;;;;;17.15;12.23;;;;;;;18.08;16.51;101911.78;5003617;28;106083;-71
2022/03/22 15:19:22;;;;;;;21.92;10.77;;;;;;;17.93;16.63;101906.31;5004068;28;105845;-72
2022/03/22 15:21:47;;;;;;;17.55;10.77;;;;;;;17.76;16.71;101896.59;5003256;28;106296;-71
2022/03/22 15:24:13;;;;;;;18.42;11.73;;;;;;;17.64;16.81;101903.38;5003303;28;106515;-71
2022/03/22 15:26:39;;;;;;;16.00;11.55;;;;;;;17.49;17.07;101901.41;5001484;28;106322;-72
2022/03/22 15:29:04;;;;;;;17.77;11.73;;;;;;;17.38;17.16;101902.63;5003278;28;106198;-71
2022/03/22 15:31:29;;;;;;;15.50;11.00;;;;;;;17.28;17.38;101901.13;5002869;28;106182;-71
2022/03/22 15:33:58;;;;;;;18.83;12.35;;;;;;;17.16;17.72;101895.31;5015265;28;105982;-71
2022/03/22 15:36:24;;;;;;;22.27;12.75;;;;;;;17.03;17.59;101899.38;5021617;27;106127;-73
2022/03/22 15:38:49;;;;;;;20.67;12.27;;;;;;;16.89;17.83;101900.91;5008365;28;105945;-71
2022/03/22 15:41:15;;;;;;;19.63;12.43;;;;;;;16.79;17.62;101894.00;5010073;28;105776;-70
2022/03/22 15:43:41;;;;;;;18.75;12.90;;;;;;;16.74;17.51;101891.78;5009337;28;105842;-70
2022/03/22 15:46:06;;;;;;;17.73;12.23;;;;;;;16.69;17.74;101895.00;5008954;28;106152;-72
2022/03/22 15:48:32;;;;;;;19.63;11.80;;;;;;;16.63;17.69;101892.97;5010165;28;105754;-74
2022/03/22 15:50:57;;;;;;;21.92;12.82;;;;;;;16.58;18.03;101892.66;5009261;28;112741;-71
2022/03/22 15:53:22;;;;;;;22.63;14.57;;;;;;;16.53;18.04;101895.84;5009730;28;106416;-72
2022/03/22 15:55:48;;;;;;;21.40;14.75;;;;;;;16.47;18.17;101895.66;5009309;28;106167;-70
2022/03/22 15:58:13;;;;;;;24.30;16.98;;;;;;;16.40;18.35;101895.47;5010075;28;106266;-71
2022/03/22 16:00:39;;;;;;;20.23;14.73;;;;;;;16.31;18.46;101880.38;5009585;28;106202;-69
2022/03/22 16:03:05;;;;;;;20.20;13.48;;;;;;;16.24;18.39;101891.78;5009526;28;106347;-70
2022/03/22 16:05:31;;;;;;;13.85;9.50;;;;;;;16.16;18.48;101894.47;5009063;28;106391;-70
2022/03/22 16:07:56;;;;;;;17.55;9.35;;;;;;;16.08;18.44;101889.91;5010603;28;106542;-70
2022/03/22 16:10:24;;;;;;;14.57;8.32;;;;;;;16.01;18.56;101890.75;5009494;28;106372;-71
2022/03/22 16:12:49;;;;;;;14.75;9.00;;;;;;;15.94;18.60;101887.00;5009422;28;106264;-70
2022/03/22 16:15:15;;;;;;;18.05;9.82;;;;;;;15.83;18.68;101883.63;5009695;28;105835;-71
2022/03/22 16:17:42;;;;;;;16.27;9.52;;;;;;;15.74;18.66;101884.56;5010589;28;106131;-71
2022/03/22 16:20:10;;;;;;;15.30;10.00;;;;;;;15.66;19.01;101884.56;5009589;28;106340;-70
2022/03/22 16:22:37;;;;;;;14.38;9.32;;;;;;;15.56;18.96;101876.63;5008639;28;107361;-70
2022/03/22 16:25:03;;;;;;;15.50;9.65;;;;;;;15.46;18.81;101870.53;5009143;28;106240;-71
2022/03/22 16:27:29;;;;;;;17.90;11.45;;;;;;;15.34;19.33;101881.56;5011080;28;106133;-71
2022/03/22 16:29:54;;;;;;;20.05;11.38;;;;;;;15.26;19.34;101876.16;5008834;28;106222;-70
2022/03/22 16:36:45;;;;;;;23.48;12.85;;;;;;;15.16;19.36;101876.28;5009040;28;105938;-72
2022/03/22 16:37:49;;;;;;;26.67;14.32;;;;;;;14.95;19.98;101867.75;5009940;28;105814;-69
2022/03/22 16:40:15;;;;;;;25.92;15.18;;;;;;;14.83;19.79;101865.34;5009374;28;106153;-71
2022/03/22 16:42:40;;;;;;;20.40;12.82;;;;;;;14.71;20.09;101859.38;5008651;28;106417;-71
2022/03/22 16:45:06;;;;;;;25.75;13.00;;;;;;;14.59;20.07;101859.78;5008381;28;106092;-69
2022/03/22 16:47:31;;;;;;;17.00;11.35;;;;;;;14.47;20.33;101865.34;5009788;28;105843;-73
2022/03/22 16:50:04;;;;;;;21.85;11.95;;;;;;;14.38;20.37;101863.63;5006890;28;108502;-70
2022/03/22 16:52:29;;;;;;;22.55;12.65;;;;;;;14.28;20.33;101862.84;5008752;28;105912;-70
2022/03/22 16:54:57;;;;;;;28.42;12.60;;;;;;;14.16;20.37;101868.44;5008927;28;106287;-70
2022/03/22 16:57:22;;;;;;;26.20;12.70;;;;;;;14.06;20.50;101862.31;5009477;28;106485;-72
2022/03/22 16:59:48;;;;;;;29.60;13.10;;;;;;;13.91;20.87;101863.84;5008671;28;106482;-71
2022/03/22 17:02:13;;;;;;;25.70;13.15;;;;;;;13.74;21.19;101866.34;5008707;28;105941;-71
2022/03/22 17:04:39;;;;;;;23.45;11.95;;;;;;;13.60;21.03;101866.81;5008576;28;106543;-70
2022/03/22 17:07:04;;;;;;;22.52;12.30;;;;;;;13.48;21.30;101868.88;5008738;28;106091;-72
2022/03/22 17:09:31;;;;;;;19.60;11.40;;;;;;;13.37;20.92;101867.22;5008137;28;106098;-72
2022/03/22 17:11:56;;;;;;;20.52;11.82;;;;;;;13.25;21.50;101868.38;5007906;28;106668;-70
2022/03/22 17:14:22;;;;;;;24.05;11.27;;;;;;;13.15;21.81;101866.56;5007908;28;106294;-70
2022/03/22 17:16:47;;;;;;;19.23;11.30;;;;;;;13.05;21.87;101863.06;5008044;28;105965;-70
2022/03/22 17:19:18;;;;;;;20.08;12.07;;;;;;;12.93;21.21;101867.78;5007532;28;107803;-69
2022/03/22 17:21:45;;;;;;;31.88;14.02;;;;;;;12.81;21.33;101872.44;5007493;28;106780;-70
2022/03/22 17:24:11;;;;;;;20.77;11.15;;;;;;;12.69;21.79;101861.03;5008184;28;105997;-72
2022/03/22 17:26:37;;;;;;;26.25;12.40;;;;;;;12.59;22.00;101867.38;5008579;28;106487;-70
2022/03/22 17:29:04;;;;;;;28.67;12.95;;;;;;;12.49;22.36;101864.72;5008266;28;106092;-71
2022/03/22 17:31:32;;;;;;;27.98;13.45;;;;;;;12.38;21.89;101876.41;5007423;28;106283;-70
2022/03/22 17:33:59;;;;;;;26.23;13.77;;;;;;;12.28;22.64;101872.91;5007088;28;106131;-71
2022/03/22 17:36:26;;;;;;;28.45;13.15;;;;;;;12.16;22.39;101866.84;5008602;28;106212;-71
2022/03/22 17:38:54;;;;;;;23.00;12.75;;;;;;;12.06;22.57;101874.84;5008081;28;107014;-74
2022/03/22 17:41:19;;;;;;;22.00;11.15;;;;;;;11.97;22.62;101867.66;4999756;28;106027;-70
2022/03/22 17:43:49;;;;;;;26.40;11.70;;;;;;;11.90;22.85;101869.19;4986253;28;106127;-70
2022/03/22 17:46:15;;;;;;;18.17;9.52;;;;;;;11.81;22.80;101868.16;4986708;28;106295;-69
2022/03/22 17:48:41;;;;;;;22.48;10.05;;;;;;;11.73;23.17;101876.88;4986828;28;106146;-70
2022/03/22 17:51:08;;;;;;;15.90;9.48;;;;;;;11.64;23.08;101867.84;4986015;28;106510;-72
2022/03/22 17:53:34;;;;;;;17.48;10.18;;;;;;;11.56;22.89;101869.50;4986333;28;106027;-69
2022/03/22 17:55:59;;;;;;;21.00;11.63;;;;;;;11.47;23.07;101866.66;4987114;28;106076;-70
2022/03/22 17:58:26;;;;;;;24.80;12.20;;;;;;;11.38;23.62;101867.47;4986419;28;106183;-70
2022/03/22 18:00:52;;;;;;;21.80;11.73;;;;;;;11.32;23.46;101870.69;4986039;28;106967;-69
2022/03/22 18:03:19;;;;;;;26.10;12.27;;;;;;;11.25;23.39;101872.19;4986321;28;106469;-71
2022/03/22 18:05:49;;;;;;;24.90;13.32;;;;;;;11.14;23.83;101873.97;4986269;28;106027;-70
2022/03/22 18:08:17;;;;;;;25.08;13.85;;;;;;;11.07;23.83;101871.97;4986296;28;105980;-70